createdAt,value
2023-02-28T00:01:09.301Z,6.40
2023-02-28T00:03:36.846Z,3.88
2023-02-28T00:06:05.274Z,4.47
2023-02-28T00:08:32.865Z,3.58
2023-02-28T00:11:04.482Z,6.25
2023-02-28T00:13:32.395Z,9.35
2023-02-28T00:16:01.118Z,6.65
2023-02-28T00:18:31.160Z,4.45
2023-02-28T00:20:59.394Z,6.25
2023-02-28T00:23:27.256Z,4.75
2023-02-28T00:25:54.792Z,3.55
2023-02-28T00:28:22.448Z,7.75
2023-02-28T00:30:50.030Z,3.33
2023-02-28T00:33:17.707Z,4.05
2023-02-28T00:35:47.352Z,9.15
2023-02-28T00:38:15.330Z,5.60
2023-02-28T00:40:43.236Z,3.92
2023-02-28T00:43:12.314Z,7.57
2023-02-28T00:45:39.839Z,10.30
2023-02-28T00:48:07.412Z,6.53
2023-02-28T00:50:34.947Z,5.40
2023-02-28T00:53:02.498Z,4.55
2023-02-28T00:55:30.061Z,4.18
2023-02-28T00:57:57.586Z,5.25
2023-02-28T01:00:26.462Z,6.80
2023-02-28T01:02:53.986Z,4.30
2023-02-28T01:05:21.513Z,5.72
2023-02-28T01:07:49.037Z,5.63
2023-02-28T01:10:16.685Z,8.00
2023-02-28T01:12:44.197Z,5.03
2023-02-28T01:15:12.382Z,6.05
2023-02-28T01:20:07.672Z,5.72
2023-02-28T01:22:36.165Z,7.57
2023-02-28T01:25:03.722Z,4.88
2023-02-28T01:27:32.884Z,5.95
2023-02-28T01:30:00.398Z,5.72
2023-02-28T01:32:27.925Z,7.93
2023-02-28T01:34:55.579Z,4.32
2023-02-28T01:37:24.505Z,6.57
2023-02-28T01:39:52.009Z,3.65
2023-02-28T01:42:21.952Z,8.65
2023-02-28T01:45:16.662Z,6.05
2023-02-28T01:47:44.235Z,7.05
2023-02-28T01:50:13.850Z,4.93
2023-02-28T01:52:41.477Z,4.18
2023-02-28T01:55:09.114Z,6.97
2023-02-28T02:00:08.477Z,7.85
2023-02-28T02:02:40.646Z,4.93
2023-02-28T02:05:16.723Z,3.38
2023-02-28T02:07:44.772Z,8.18
2023-02-28T02:10:22.821Z,5.22
2023-02-28T02:12:59.596Z,5.68
2023-02-28T02:15:28.656Z,6.03
2023-02-28T02:17:57.957Z,6.15
2023-02-28T02:20:41.612Z,5.03
2023-02-28T02:23:15.152Z,6.05
2023-02-28T02:25:47.154Z,5.35
2023-02-28T02:28:24.294Z,6.18
2023-02-28T02:31:07.805Z,4.88
2023-02-28T02:33:40.970Z,5.43
2023-02-28T02:36:17.755Z,4.60
2023-02-28T02:38:48.513Z,8.00
2023-02-28T02:41:25.674Z,7.57
2023-02-28T02:43:54.724Z,6.60
2023-02-28T02:46:23.392Z,5.47
2023-02-28T02:48:50.915Z,4.63
2023-02-28T02:51:18.956Z,8.40
2023-02-28T02:53:50.176Z,6.45
2023-02-28T02:56:18.928Z,5.97
2023-02-28T02:58:46.791Z,6.10
2023-02-28T03:01:16.673Z,7.20
2023-02-28T03:03:44.303Z,7.75
2023-02-28T03:06:12.383Z,6.85
2023-02-28T03:08:39.956Z,7.00
2023-02-28T03:11:09.970Z,6.85
2023-02-28T03:13:56.452Z,5.88
2023-02-28T03:16:33.839Z,5.80
2023-02-28T03:19:10.640Z,7.10
2023-02-28T03:21:40.423Z,7.32
2023-02-28T03:24:20.219Z,6.00
2023-02-28T03:26:50.808Z,10.40
2023-02-28T03:29:25.822Z,7.03
2023-02-28T03:31:59.421Z,7.07
2023-02-28T03:34:37.709Z,6.38
2023-02-28T03:37:12.461Z,7.47
2023-02-28T03:39:41.739Z,5.63
2023-02-28T03:42:11.494Z,5.53
2023-02-28T03:44:41.096Z,7.45
2023-02-28T03:47:11.407Z,7.97
2023-02-28T03:49:44.463Z,8.43
2023-02-28T03:52:12.009Z,8.00
2023-02-28T03:54:42.113Z,7.05
2023-02-28T03:57:14.917Z,7.78
2023-02-28T03:59:44.064Z,6.53
2023-02-28T04:02:11.611Z,8.93
2023-02-28T04:04:39.224Z,8.88
2023-02-28T04:07:09.093Z,9.00
2023-02-28T04:09:36.648Z,10.07
2023-02-28T04:12:04.224Z,6.60
2023-02-28T04:14:31.780Z,7.53
2023-02-28T04:16:59.459Z,8.48
2023-02-28T04:19:26.985Z,9.40
2023-02-28T04:21:54.682Z,8.80
2023-02-28T04:24:23.537Z,7.30
2023-02-28T04:26:51.984Z,13.25
2023-02-28T04:29:20.756Z,9.93
2023-02-28T04:31:48.373Z,8.13
2023-02-28T04:34:16.009Z,8.90
2023-02-28T04:36:43.533Z,10.13
2023-02-28T04:39:11.142Z,8.50
2023-02-28T04:41:38.769Z,7.75
2023-02-28T04:44:06.296Z,7.63
2023-02-28T04:46:33.842Z,9.23
2023-02-28T04:49:01.343Z,8.45
2023-02-28T04:51:29.157Z,8.98
2023-02-28T04:53:56.865Z,8.05
2023-02-28T04:56:24.378Z,16.73
2023-02-28T04:58:53.947Z,10.98
2023-02-28T05:01:21.471Z,9.15
2023-02-28T05:03:49.229Z,10.63
2023-02-28T05:06:16.778Z,10.65
2023-02-28T05:08:44.348Z,8.30
2023-02-28T05:11:18.452Z,8.93
2023-02-28T05:13:46.121Z,11.18
2023-02-28T05:16:13.666Z,10.98
2023-02-28T05:18:41.434Z,10.38
2023-02-28T05:21:17.338Z,13.43
2023-02-28T05:23:45.961Z,11.70
2023-02-28T05:26:14.385Z,9.63
2023-02-28T05:28:41.899Z,7.25
2023-02-28T05:31:10.181Z,14.93
2023-02-28T05:36:05.597Z,14.43
2023-02-28T05:38:33.253Z,10.90
2023-02-28T05:41:00.752Z,12.38
2023-02-28T05:43:28.254Z,11.48
2023-02-28T05:45:55.879Z,14.82
2023-02-28T05:48:23.455Z,10.85
2023-02-28T05:50:51.013Z,13.80
2023-02-28T05:53:18.528Z,14.27
2023-02-28T05:55:46.101Z,16.27
2023-02-28T05:58:13.623Z,13.52
2023-02-28T06:00:42.433Z,19.40
2023-02-28T06:03:10.014Z,16.95
2023-02-28T06:05:37.645Z,17.52
2023-02-28T06:08:06.745Z,11.73
2023-02-28T06:10:34.845Z,15.32
2023-02-28T06:13:05.873Z,14.50
2023-02-28T06:15:33.542Z,25.20
2023-02-28T06:18:01.213Z,15.40
2023-02-28T06:20:31.834Z,14.13
2023-02-28T06:22:59.621Z,14.23
2023-02-28T06:25:27.863Z,17.45
2023-02-28T06:30:26.146Z,19.83
2023-02-28T06:32:53.933Z,14.15
2023-02-28T06:35:21.534Z,14.30
2023-02-28T06:37:49.133Z,16.88
2023-02-28T06:40:16.760Z,18.35
2023-02-28T06:42:44.383Z,19.83
2023-02-28T06:45:12.320Z,21.77
2023-02-28T06:47:40.366Z,25.17
2023-02-28T06:50:08.132Z,13.30
2023-02-28T06:52:38.223Z,23.65
2023-02-28T06:55:08.904Z,14.88
2023-02-28T06:57:36.622Z,14.27
2023-02-28T07:00:08.686Z,17.20
2023-02-28T07:02:36.876Z,21.45
2023-02-28T07:07:31.937Z,16.10
2023-02-28T07:09:59.552Z,13.27
2023-02-28T07:12:27.169Z,18.15
2023-02-28T07:14:56.740Z,18.45
2023-02-28T07:17:24.265Z,14.82
2023-02-28T07:19:51.793Z,24.10
2023-02-28T07:22:19.334Z,12.88
2023-02-28T07:24:46.861Z,12.25
2023-02-28T07:27:26.342Z,16.98
2023-02-28T07:29:54.226Z,16.73
2023-02-28T07:32:21.794Z,24.65
2023-02-28T07:34:49.435Z,20.42
2023-02-28T07:37:17.057Z,19.85
2023-02-28T07:39:44.551Z,17.83
2023-02-28T07:42:12.909Z,18.25
2023-02-28T07:44:41.490Z,20.67
2023-02-28T07:47:09.734Z,26.08
2023-02-28T07:52:05.310Z,21.55
2023-02-28T07:54:32.983Z,22.13
2023-02-28T07:57:00.594Z,19.65
2023-02-28T07:59:29.496Z,18.52
2023-02-28T08:01:59.421Z,22.40
2023-02-28T08:04:27.144Z,18.48
2023-02-28T08:06:54.864Z,29.90
2023-02-28T08:09:22.429Z,24.15
2023-02-28T08:11:49.950Z,20.58
2023-02-28T08:14:17.502Z,18.27
2023-02-28T08:16:45.109Z,24.35
2023-02-28T08:19:12.621Z,19.08
2023-02-28T08:21:40.757Z,18.85
2023-02-28T08:24:08.341Z,17.83
2023-02-28T08:26:35.903Z,19.02
2023-02-28T08:29:03.422Z,21.95
2023-02-28T08:31:31.379Z,19.45
2023-02-28T08:34:00.230Z,20.98
2023-02-28T08:36:29.548Z,20.15
2023-02-28T08:38:58.389Z,22.27
2023-02-28T08:41:25.917Z,21.20
2023-02-28T08:43:54.533Z,24.23
2023-02-28T08:46:22.109Z,20.35
2023-02-28T08:48:52.792Z,25.25
2023-02-28T08:51:27.063Z,19.45
2023-02-28T08:53:55.251Z,17.17
2023-02-28T08:56:22.966Z,23.45
2023-02-28T08:58:50.898Z,16.42
2023-02-28T09:01:19.370Z,27.08
2023-02-28T09:03:47.376Z,19.15
2023-02-28T09:06:15.479Z,18.65
2023-02-28T09:08:43.202Z,28.40
2023-02-28T09:11:11.007Z,20.23
2023-02-28T09:13:38.618Z,17.08
2023-02-28T09:16:06.757Z,15.00
2023-02-28T09:18:35.896Z,20.00
2023-02-28T09:21:04.444Z,18.60
2023-02-28T09:23:32.094Z,17.77
2023-02-28T09:25:59.637Z,20.65
2023-02-28T09:28:27.225Z,21.55
2023-02-28T09:30:55.533Z,25.83
2023-02-28T09:35:50.814Z,14.45
2023-02-28T09:38:18.809Z,33.38
2023-02-28T09:40:53.247Z,24.77
2023-02-28T09:43:22.366Z,21.27
2023-02-28T09:45:51.402Z,19.95
2023-02-28T09:48:25.541Z,19.02
2023-02-28T09:50:54.519Z,20.33
2023-02-28T09:53:27.835Z,20.42
2023-02-28T09:56:15.608Z,29.15
2023-02-28T09:58:56.787Z,20.08
2023-02-28T10:01:43.065Z,38.40
2023-02-28T10:04:14.348Z,18.23
2023-02-28T10:06:43.732Z,20.30
2023-02-28T10:09:31.491Z,20.20
2023-02-28T10:12:01.008Z,15.95
2023-02-28T10:14:29.448Z,25.75
2023-02-28T10:16:58.222Z,17.63
2023-02-28T10:19:27.717Z,20.05
2023-02-28T10:21:59.143Z,17.00
2023-02-28T10:24:30.889Z,16.73
2023-02-28T10:27:01.735Z,14.95
2023-02-28T10:29:30.764Z,15.45
2023-02-28T10:31:58.320Z,14.30
2023-02-28T10:34:26.017Z,24.67
2023-02-28T10:36:53.552Z,18.63
2023-02-28T10:39:40.806Z,16.75
2023-02-28T10:42:20.689Z,18.95
2023-02-28T10:44:48.265Z,18.25
2023-02-28T10:47:16.757Z,19.27
2023-02-28T10:49:48.568Z,12.82
2023-02-28T10:52:16.225Z,14.60
2023-02-28T10:54:43.737Z,15.07
2023-02-28T10:57:17.041Z,15.73
2023-02-28T10:59:45.215Z,14.48
2023-02-28T11:05:23.729Z,13.13
2023-02-28T11:07:55.062Z,15.02
2023-02-28T11:10:22.856Z,22.08
2023-02-28T11:12:53.405Z,12.48
2023-02-28T11:15:25.964Z,14.15
2023-02-28T11:17:57.964Z,12.55
2023-02-28T11:20:26.354Z,14.80
2023-02-28T11:22:53.910Z,17.45
2023-02-28T11:25:25.230Z,12.55
2023-02-28T11:27:53.230Z,14.63
2023-02-28T11:30:26.934Z,15.23
2023-02-28T11:32:54.603Z,12.73
2023-02-28T11:35:30.646Z,14.32
2023-02-28T11:37:59.281Z,12.52
2023-02-28T11:40:30.428Z,13.43
2023-02-28T11:42:57.961Z,17.52
2023-02-28T11:45:45.831Z,13.82
2023-02-28T11:50:56.636Z,13.07
2023-02-28T11:53:42.995Z,11.20
2023-02-28T11:56:10.515Z,10.93
2023-02-28T11:58:40.677Z,12.80
2023-02-28T12:01:16.378Z,13.07
2023-02-28T12:04:02.846Z,23.30
2023-02-28T12:06:42.137Z,13.02
2023-02-28T12:09:22.178Z,19.40
2023-02-28T12:11:57.104Z,9.77
2023-02-28T12:14:43.513Z,15.50
2023-02-28T12:17:29.681Z,13.20
2023-02-28T12:19:57.252Z,11.90
2023-02-28T12:22:36.052Z,9.70
2023-02-28T12:25:12.781Z,16.65
2023-02-28T12:27:43.859Z,12.23
2023-02-28T12:30:19.212Z,15.60
2023-02-28T12:32:47.856Z,14.30
2023-02-28T12:35:16.570Z,12.45
2023-02-28T12:37:47.093Z,10.43
2023-02-28T12:40:16.242Z,11.75
2023-02-28T12:42:47.536Z,12.82
2023-02-28T12:45:25.126Z,14.73
2023-02-28T12:47:54.389Z,10.98
2023-02-28T12:50:21.989Z,13.07
2023-02-28T12:52:49.500Z,12.40
2023-02-28T12:55:19.173Z,10.38
2023-02-28T12:57:52.719Z,11.45
2023-02-28T13:00:20.960Z,9.18
2023-02-28T13:05:34.967Z,10.68
2023-02-28T13:08:14.730Z,10.40
2023-02-28T13:10:43.711Z,19.60
2023-02-28T13:13:15.559Z,11.32
2023-02-28T13:15:46.099Z,16.15
2023-02-28T13:18:31.604Z,14.38
2023-02-28T13:20:59.104Z,15.88
2023-02-28T13:23:38.079Z,9.75
2023-02-28T13:26:05.688Z,10.40
2023-02-28T13:28:52.026Z,12.32
2023-02-28T13:31:19.585Z,10.40
2023-02-28T13:33:50.617Z,11.85
2023-02-28T13:36:22.827Z,11.00
2023-02-28T13:38:52.537Z,9.93
2023-02-28T13:41:35.320Z,11.20
2023-02-28T13:44:06.908Z,17.08
2023-02-28T13:46:35.276Z,13.13
2023-02-28T13:49:21.885Z,10.13
2023-02-28T13:51:49.731Z,16.75
2023-02-28T13:54:36.621Z,17.52
2023-02-28T13:57:13.949Z,11.38
2023-02-28T13:59:48.064Z,13.43
2023-02-28T14:02:15.627Z,24.98
2023-02-28T14:04:55.692Z,12.60
2023-02-28T14:07:24.884Z,15.45
2023-02-28T14:10:00.601Z,15.48
2023-02-28T14:12:46.678Z,11.52
2023-02-28T14:15:33.347Z,12.57
2023-02-28T14:18:04.354Z,13.18
2023-02-28T14:20:32.921Z,13.70
2023-02-28T14:23:05.986Z,18.85
2023-02-28T14:25:37.684Z,14.05
2023-02-28T14:28:08.885Z,14.35
2023-02-28T14:30:39.444Z,14.07
2023-02-28T14:33:27.409Z,20.77
2023-02-28T14:38:26.986Z,23.02
2023-02-28T14:40:54.665Z,18.10
2023-02-28T14:43:23.404Z,13.57
2023-02-28T14:45:51.788Z,13.85
2023-02-28T14:48:19.320Z,10.73
2023-02-28T14:50:50.938Z,16.88
2023-02-28T14:53:19.700Z,15.43
2023-02-28T14:55:47.868Z,14.82
2023-02-28T14:58:27.610Z,12.05
2023-02-28T15:00:56.015Z,9.82
2023-02-28T15:03:24.533Z,16.77
2023-02-28T15:05:58.871Z,15.57
2023-02-28T15:08:27.359Z,18.85
2023-02-28T15:13:22.394Z,17.92
2023-02-28T15:16:08.253Z,12.68
2023-02-28T15:18:35.835Z,16.13
2023-02-28T15:21:08.385Z,12.88
2023-02-28T15:23:36.249Z,19.27
2023-02-28T15:26:03.861Z,13.20
2023-02-28T15:28:31.420Z,15.75
2023-02-28T15:31:01.849Z,22.63
2023-02-28T15:33:30.212Z,15.77
2023-02-28T15:36:13.145Z,15.18
2023-02-28T15:38:40.781Z,18.05
2023-02-28T15:41:18.765Z,16.35
2023-02-28T15:43:46.298Z,13.27
2023-02-28T15:46:15.151Z,20.35
2023-02-28T15:48:53.214Z,16.15
2023-02-28T15:51:29.118Z,11.43
2023-02-28T15:54:23.910Z,13.50
2023-02-28T15:56:56.196Z,12.35
2023-02-28T15:59:24.940Z,13.43
2023-02-28T16:02:04.875Z,14.65
2023-02-28T16:04:32.573Z,12.52
2023-02-28T16:07:00.127Z,22.67
2023-02-28T16:09:28.316Z,17.23
2023-02-28T16:11:56.488Z,18.95
2023-02-28T16:14:24.814Z,14.23
2023-02-28T16:19:20.374Z,16.05
2023-02-28T16:21:47.890Z,17.38
2023-02-28T16:24:15.381Z,11.32
2023-02-28T16:26:43.029Z,13.95
2023-02-28T16:29:11.304Z,12.88
2023-02-28T16:34:06.512Z,22.00
2023-02-28T16:36:34.106Z,20.00
2023-02-28T16:39:03.352Z,27.00
2023-02-28T16:41:31.307Z,28.15
2023-02-28T16:44:00.815Z,19.20
2023-02-28T16:46:33.101Z,29.65
2023-02-28T16:49:00.943Z,14.40
2023-02-28T16:51:28.721Z,13.77
2023-02-28T16:53:56.480Z,25.38
2023-02-28T16:56:24.669Z,18.13
2023-02-28T16:58:52.404Z,12.85
2023-02-28T17:01:22.669Z,15.13
2023-02-28T17:03:50.704Z,19.33
2023-02-28T17:06:23.009Z,19.65
2023-02-28T17:08:51.059Z,17.83
2023-02-28T17:11:18.966Z,17.02
2023-02-28T17:13:46.585Z,17.50
2023-02-28T17:16:33.527Z,15.35
2023-02-28T17:19:02.389Z,15.87
2023-02-28T17:21:30.044Z,21.65
2023-02-28T17:23:57.602Z,18.83
2023-02-28T17:26:29.235Z,19.13
2023-02-28T17:28:57.815Z,18.10
2023-02-28T17:31:25.973Z,19.65
2023-02-28T17:33:53.908Z,21.92
2023-02-28T17:36:26.542Z,17.60
2023-02-28T17:38:55.565Z,21.52
2023-02-28T17:41:23.080Z,21.77
2023-02-28T17:43:51.450Z,12.77
2023-02-28T17:48:52.161Z,22.52
2023-02-28T17:51:20.803Z,21.63
2023-02-28T17:53:48.964Z,19.35
2023-02-28T17:56:24.154Z,16.25
2023-02-28T17:58:51.961Z,19.27
2023-02-28T18:01:21.128Z,21.67
2023-02-28T18:03:49.037Z,19.60
2023-02-28T18:06:37.275Z,22.70
2023-02-28T18:09:04.793Z,22.23
2023-02-28T18:11:42.104Z,25.00
2023-02-28T18:14:09.833Z,21.17
2023-02-28T18:16:37.495Z,21.55
2023-02-28T18:19:05.265Z,20.58
2023-02-28T18:21:32.845Z,22.55
2023-02-28T18:24:00.402Z,25.33
2023-02-28T18:26:28.352Z,15.23
2023-02-28T18:28:56.069Z,16.38
2023-02-28T18:31:23.583Z,22.13
2023-02-28T18:33:51.641Z,25.30
2023-02-28T18:36:19.440Z,21.02
2023-02-28T18:38:47.498Z,19.25
2023-02-28T18:41:15.031Z,19.55
2023-02-28T18:43:42.550Z,24.33
2023-02-28T18:46:13.547Z,19.58
2023-02-28T18:48:41.126Z,22.27
2023-02-28T18:51:15.693Z,22.80
2023-02-28T18:53:43.358Z,25.00
2023-02-28T18:56:12.905Z,19.88
2023-02-28T18:58:40.917Z,20.00
2023-02-28T19:01:16.145Z,21.20
2023-02-28T19:03:43.939Z,22.27
2023-02-28T19:06:11.601Z,21.90
2023-02-28T19:08:39.105Z,20.73
2023-02-28T19:11:07.457Z,22.90
2023-02-28T19:13:34.977Z,21.98
2023-02-28T19:16:03.056Z,21.85
2023-02-28T19:18:30.597Z,20.63
2023-02-28T19:20:58.408Z,22.70
2023-02-28T19:23:26.301Z,25.35
2023-02-28T19:25:53.841Z,21.80
2023-02-28T19:28:21.640Z,23.02
2023-02-28T19:30:49.802Z,21.83
2023-02-28T19:33:17.474Z,21.40
2023-02-28T19:35:45.055Z,17.67
2023-02-28T19:38:12.598Z,22.23
2023-02-28T19:40:40.140Z,20.83
2023-02-28T19:43:08.307Z,20.15
2023-02-28T19:45:36.439Z,26.58
2023-02-28T19:48:04.346Z,22.73
2023-02-28T19:50:32.017Z,23.30
2023-02-28T19:53:01.113Z,23.90
2023-02-28T19:55:28.648Z,19.48
2023-02-28T19:57:56.162Z,34.58
2023-02-28T20:00:23.942Z,17.10
2023-02-28T20:02:51.480Z,18.30
2023-02-28T20:05:19.073Z,20.60
2023-02-28T20:07:46.635Z,25.13
2023-02-28T20:10:14.239Z,23.45
2023-02-28T20:12:41.801Z,21.48
2023-02-28T20:15:09.857Z,26.33
2023-02-28T20:17:37.444Z,24.50
2023-02-28T20:20:05.172Z,23.70
2023-02-28T20:22:33.077Z,23.50
2023-02-28T20:25:00.605Z,23.58
2023-02-28T20:27:28.153Z,23.25
2023-02-28T20:29:55.669Z,24.48
2023-02-28T20:32:23.256Z,18.70
2023-02-28T20:34:50.793Z,25.33
2023-02-28T20:37:18.302Z,20.45
2023-02-28T20:39:46.036Z,30.42
2023-02-28T20:42:13.534Z,22.33
2023-02-28T20:44:41.087Z,26.83
2023-02-28T20:47:08.638Z,22.30
2023-02-28T20:49:36.216Z,25.85
2023-02-28T20:52:03.777Z,14.90
2023-02-28T20:54:31.319Z,22.40
2023-02-28T20:56:58.869Z,19.00
2023-02-28T20:59:26.446Z,22.35
2023-02-28T21:01:56.110Z,23.50
2023-02-28T21:04:23.753Z,27.60
2023-02-28T21:06:51.811Z,25.92
2023-02-28T21:09:19.335Z,27.02
2023-02-28T21:11:46.930Z,24.20
2023-02-28T21:14:15.357Z,23.27
2023-02-28T21:16:42.974Z,24.17
2023-02-28T21:19:10.550Z,26.55
2023-02-28T21:21:45.010Z,21.38
2023-02-28T21:24:12.892Z,22.10
2023-02-28T21:26:41.007Z,25.90
2023-02-28T21:29:08.610Z,27.38
2023-02-28T21:31:36.283Z,20.70
2023-02-28T21:34:04.513Z,21.45
2023-02-28T21:39:02.075Z,24.42
2023-02-28T21:41:30.309Z,20.67
2023-02-28T21:46:26.215Z,25.02
2023-02-28T21:48:53.769Z,21.83
2023-02-28T21:51:22.269Z,19.50
2023-02-28T21:53:50.028Z,24.42
2023-02-28T21:56:22.215Z,30.42
2023-02-28T21:58:49.883Z,20.83
2023-02-28T22:01:18.437Z,26.02
2023-02-28T22:03:46.037Z,23.08
2023-02-28T22:06:14.722Z,17.60
2023-02-28T22:08:42.582Z,22.58
2023-02-28T22:11:10.260Z,21.23
2023-02-28T22:13:38.172Z,20.23
2023-02-28T22:16:06.478Z,22.38
2023-02-28T22:18:37.399Z,24.00
2023-02-28T22:21:05.341Z,22.55
2023-02-28T22:23:32.970Z,21.63
2023-02-28T22:26:04.280Z,24.48
2023-02-28T22:28:31.914Z,21.98
2023-02-28T22:30:59.660Z,20.42
2023-02-28T22:33:27.324Z,21.83
2023-02-28T22:35:55.055Z,22.10
2023-02-28T22:38:22.749Z,25.23
2023-02-28T22:40:50.289Z,23.23
2023-02-28T22:43:17.830Z,20.92
2023-02-28T22:45:45.346Z,22.35
2023-02-28T22:48:13.270Z,22.55
2023-02-28T22:50:40.832Z,20.20
2023-02-28T22:53:08.337Z,25.13
2023-02-28T22:55:35.858Z,20.63
2023-02-28T22:58:03.393Z,26.00
2023-02-28T23:00:30.935Z,23.30
2023-02-28T23:02:58.463Z,21.00
2023-02-28T23:05:25.991Z,22.75
2023-02-28T23:07:53.520Z,21.83
2023-02-28T23:10:21.115Z,22.45
2023-02-28T23:12:53.686Z,22.52
2023-02-28T23:15:21.562Z,24.90
2023-02-28T23:17:49.162Z,27.90
2023-02-28T23:20:18.142Z,25.73
2023-02-28T23:22:50.542Z,23.20
2023-02-28T23:25:18.631Z,27.00
2023-02-28T23:27:46.158Z,21.77
2023-02-28T23:30:13.875Z,26.10
2023-02-28T23:32:41.671Z,22.42
2023-02-28T23:35:09.440Z,23.23
2023-02-28T23:37:37.481Z,21.75
2023-02-28T23:40:05.402Z,23.45
2023-02-28T23:42:32.936Z,25.67
2023-02-28T23:45:00.860Z,24.45
2023-02-28T23:47:28.419Z,23.75
2023-02-28T23:49:55.907Z,22.48
2023-02-28T23:52:23.511Z,22.42
2023-02-28T23:54:51.046Z,23.63
2023-02-28T23:57:18.553Z,25.35
2023-02-28T23:59:46.078Z,15.35
